O avião que transportava a delegação da Chapecoense para Medellín, na Colômbia, sofreu um acidente na madrugada desta terça-feira (29). Segundo autoridades colombianas, há 76 mortos e cinco sobreviventes.

O modelo Avro RJ-85 de matrícula CP-2933, da companhia aérea LAMIA Bolívia, cumpria o voo LMI-2933 entre Santa Cruz (Bolívia) e Medellín (Colômbia) quando desapareceu do radar às 21h 56min (02:56Z) na área de La Ceja (Colômbia), cerca de 15-20nm à sudeste de Medellín.

Foto por Lino Borges

Foto por Lino Borges

A informação METAR mais próxima no momento da queda mostra chuvisco leve e céu muito nublado.
SKRG 290300Z VRB02KT 9999 -DZ BKN015 SCT080 17/16 A3025

Em uma nota de imprensa, o Aeroporto de Medellín informou que a aeronave teria declarado emergência com a torre de Medellín aproximadamente às 22:00 (Horário Local), informando problemas elétricos.

Última atualização em 29/11/2016 09h12

(151)